Time;durP1;ratioP1;P1;durP2;ratioP2;P2;SDS_P1;SDS_P2;PMS_P1;PMS_P2;Temp;Humidity;BMP_temperature;BMP_pressure;BME280_temperature;BME280_humidity;BME280_pressure;Samples;Min_cycle;Max_cycle;Signal;HPM_P1;HPM_P2
2023/04/03 00:01:28;;;;;;;4.60;1.70;;;2.70;99.90;;;;;;5072173;28;20036;-51
2023/04/03 00:03:55;;;;;;;4.10;1.40;;;2.70;99.90;;;;;;5072268;28;20048;-53
2023/04/03 00:06:21;;;;;;;3.88;1.40;;;2.70;99.90;;;;;;5072014;28;20036;-52
2023/04/03 00:08:47;;;;;;;6.50;1.35;;;2.70;99.90;;;;;;5070882;28;20089;-50
2023/04/03 00:11:13;;;;;;;5.63;1.50;;;2.70;99.90;;;;;;5072272;28;20123;-51
2023/04/03 00:13:39;;;;;;;6.80;1.20;;;2.60;99.90;;;;;;5072417;28;20028;-49
2023/04/03 00:16:06;;;;;;;6.38;1.40;;;2.60;99.90;;;;;;5070841;28;20484;-48
2023/04/03 00:18:32;;;;;;;6.10;1.80;;;2.60;99.90;;;;;;5069040;28;20033;-49
2023/04/03 00:20:58;;;;;;;4.45;1.30;;;2.70;99.90;;;;;;5061009;28;20085;-49
2023/04/03 00:23:24;;;;;;;4.43;1.20;;;2.60;99.90;;;;;;5062682;28;20047;-49
2023/04/03 00:25:51;;;;;;;4.10;1.13;;;2.50;99.90;;;;;;5061505;28;20079;-49
2023/04/03 00:28:16;;;;;;;3.30;1.27;;;2.50;99.90;;;;;;5061120;28;20115;-50
2023/04/03 00:30:42;;;;;;;3.97;1.30;;;2.60;99.90;;;;;;5062843;28;20124;-51
2023/04/03 00:33:12;;;;;;;4.07;1.33;;;2.50;99.90;;;;;;5059435;28;20060;-50
2023/04/03 00:35:38;;;;;;;5.28;1.48;;;2.50;99.90;;;;;;5060814;28;20111;-48
2023/04/03 00:38:04;;;;;;;5.45;1.40;;;2.40;99.90;;;;;;5062321;28;20112;-52
2023/04/03 00:40:35;;;;;;;5.28;1.27;;;2.40;99.90;;;;;;5061109;28;20500;-48
2023/04/03 00:43:01;;;;;;;4.30;1.20;;;2.50;99.90;;;;;;5060616;28;20116;-50
2023/04/03 00:45:32;;;;;;;4.90;1.30;;;2.40;99.90;;;;;;5062324;28;20492;-52
2023/04/03 00:47:59;;;;;;;5.70;1.10;;;2.40;99.90;;;;;;5064630;28;20041;-50
2023/04/03 00:50:27;;;;;;;5.07;1.40;;;2.30;99.90;;;;;;5063069;28;20481;-49
2023/04/03 00:52:53;;;;;;;4.15;1.20;;;2.30;99.90;;;;;;5060879;28;20122;-49
2023/04/03 00:55:19;;;;;;;3.63;1.00;;;2.30;99.90;;;;;;5062404;28;20393;-48
2023/04/03 00:57:46;;;;;;;5.10;1.55;;;2.30;99.90;;;;;;5060144;28;20037;-50
2023/04/03 01:00:16;;;;;;;3.38;1.15;;;2.30;99.90;;;;;;5061457;28;20044;-50
2023/04/03 01:02:42;;;;;;;4.00;1.35;;;2.30;99.90;;;;;;5062303;28;20064;-48
2023/04/03 01:05:08;;;;;;;4.60;1.20;;;2.30;99.90;;;;;;5060539;28;20438;-50
2023/04/03 01:07:36;;;;;;;3.85;1.30;;;2.20;99.90;;;;;;5059901;28;20037;-50
2023/04/03 01:10:06;;;;;;;5.03;1.58;;;2.30;99.90;;;;;;5062363;28;20433;-49
2023/04/03 01:12:39;;;;;;;9.05;1.40;;;2.20;99.90;;;;;;5063847;28;20036;-50
2023/04/03 01:15:11;;;;;;;5.20;1.52;;;2.10;99.90;;;;;;5051440;28;20049;-49
2023/04/03 01:17:46;;;;;;;6.25;1.67;;;2.20;99.90;;;;;;5051383;28;20037;-49
2023/04/03 01:20:31;;;;;;;5.43;1.67;;;2.10;99.90;;;;;;5051765;28;20039;-49
2023/04/03 01:23:09;;;;;;;7.13;1.75;;;2.20;99.90;;;;;;5051518;28;20059;-49
2023/04/03 01:25:43;;;;;;;4.43;1.10;;;2.10;99.90;;;;;;5051508;28;20051;-52
2023/04/03 01:28:13;;;;;;;4.05;1.25;;;2.10;99.90;;;;;;5051370;28;20040;-49
2023/04/03 01:31:02;;;;;;;5.63;1.52;;;2.00;99.90;;;;;;5051665;28;20054;-50
2023/04/03 01:33:28;;;;;;;4.22;1.30;;;2.00;99.90;;;;;;5050695;28;20374;-49
2023/04/03 01:35:54;;;;;;;3.92;1.20;;;2.10;99.90;;;;;;5053940;28;20041;-50
2023/04/03 01:38:20;;;;;;;3.97;1.30;;;2.00;99.90;;;;;;5055222;28;20053;-51
2023/04/03 01:40:46;;;;;;;5.43;1.40;;;2.00;99.90;;;;;;5054188;28;20041;-50
2023/04/03 01:43:11;;;;;;;6.45;1.52;;;2.00;99.90;;;;;;5054033;28;20489;-48
2023/04/03 01:45:37;;;;;;;5.22;1.52;;;2.00;99.90;;;;;;5055308;28;20501;-50
2023/04/03 01:48:04;;;;;;;5.07;1.30;;;2.00;99.90;;;;;;5058218;28;20032;-49
2023/04/03 01:50:30;;;;;;;5.18;1.35;;;1.90;99.90;;;;;;5074751;28;20048;-48
2023/04/03 01:52:55;;;;;;;5.38;1.50;;;2.00;99.90;;;;;;5074493;28;20115;-53
2023/04/03 01:55:21;;;;;;;5.30;1.90;;;1.90;99.90;;;;;;5074935;28;20123;-51
2023/04/03 01:57:47;;;;;;;4.80;1.33;;;1.90;99.90;;;;;;5074893;28;20044;-50
2023/04/03 02:00:13;;;;;;;5.03;1.38;;;1.90;99.90;;;;;;5075030;28;20072;-52
2023/04/03 02:02:39;;;;;;;7.13;1.52;;;1.90;99.90;;;;;;5074904;28;20041;-48
2023/04/03 02:05:06;;;;;;;7.35;1.48;;;1.90;99.90;;;;;;5074751;28;20219;-48
2023/04/03 02:07:31;;;;;;;8.52;1.70;;;1.80;99.90;;;;;;5074519;28;20075;-51
2023/04/03 02:09:57;;;;;;;5.80;1.30;;;1.90;99.90;;;;;;5074941;28;20064;-50
2023/04/03 02:12:23;;;;;;;6.50;1.63;;;1.90;99.90;;;;;;5074437;28;20036;-48
2023/04/03 02:14:48;;;;;;;5.63;1.33;;;1.90;99.90;;;;;;5073369;28;20119;-49
2023/04/03 02:17:14;;;;;;;5.32;1.45;;;1.80;99.90;;;;;;5074619;28;20072;-51
2023/04/03 02:19:40;;;;;;;5.68;1.50;;;1.90;99.90;;;;;;5074473;28;20037;-50
2023/04/03 02:22:06;;;;;;;6.43;1.70;;;1.80;99.90;;;;;;5073066;28;20079;-50
2023/04/03 02:24:32;;;;;;;5.63;1.45;;;1.70;99.90;;;;;;5073038;28;20101;-49
2023/04/03 02:26:59;;;;;;;7.90;1.50;;;1.70;99.90;;;;;;5074633;28;20451;-51
2023/04/03 02:29:24;;;;;;;5.68;1.52;;;1.80;99.90;;;;;;5074249;28;20040;-50
2023/04/03 02:31:50;;;;;;;6.43;1.48;;;1.70;99.90;;;;;;5074372;28;20087;-49
2023/04/03 02:34:16;;;;;;;7.35;1.70;;;1.70;99.90;;;;;;5074161;28;20070;-48
2023/04/03 02:36:42;;;;;;;8.02;1.88;;;1.60;99.90;;;;;;5073029;28;20119;-49
2023/04/03 02:39:08;;;;;;;6.65;1.30;;;1.60;99.90;;;;;;5074270;28;20115;-48
2023/04/03 02:41:37;;;;;;;6.03;1.58;;;1.60;99.90;;;;;;5074071;28;20028;-49
2023/04/03 02:44:04;;;;;;;4.85;1.40;;;1.60;99.90;;;;;;5074057;28;20043;-50
2023/04/03 02:46:30;;;;;;;6.40;1.75;;;1.60;99.90;;;;;;5073635;28;20083;-48
2023/04/03 02:48:56;;;;;;;5.22;2.17;;;1.60;99.90;;;;;;5073892;28;20076;-49
2023/04/03 02:51:22;;;;;;;7.32;1.55;;;1.50;99.90;;;;;;5073937;28;20075;-49
2023/04/03 02:53:49;;;;;;;4.85;1.55;;;1.50;99.90;;;;;;5073448;28;20059;-52
2023/04/03 02:56:15;;;;;;;7.40;1.50;;;1.50;99.90;;;;;;5072663;28;20037;-49
2023/04/03 02:58:41;;;;;;;7.97;1.90;;;1.50;99.90;;;;;;5073773;28;20044;-51
2023/04/03 03:01:06;;;;;;;6.13;1.85;;;1.50;99.90;;;;;;5073960;28;20041;-49
2023/04/03 03:03:32;;;;;;;6.18;1.70;;;1.50;99.90;;;;;;5073711;28;20400;-49
2023/04/03 03:06:12;;;;;;;5.30;1.35;;;1.50;99.90;;;;;;5073703;28;20036;-52
2023/04/03 03:08:39;;;;;;;7.32;2.22;;;1.40;99.90;;;;;;5073549;28;20032;-51
2023/04/03 03:11:05;;;;;;;6.97;1.80;;;1.40;99.90;;;;;;5072454;28;20121;-50
2023/04/03 03:13:31;;;;;;;7.05;1.88;;;1.40;99.90;;;;;;5073406;28;20033;-51
2023/04/03 03:15:57;;;;;;;6.65;1.60;;;1.40;99.90;;;;;;5073556;28;20465;-48
2023/04/03 03:18:23;;;;;;;9.05;2.10;;;1.30;99.90;;;;;;5073196;28;20068;-52
2023/04/03 03:20:56;;;;;;;6.55;1.60;;;1.40;99.90;;;;;;5073664;28;20037;-50
2023/04/03 03:23:25;;;;;;;5.95;1.83;;;1.40;99.90;;;;;;5073518;28;20120;-50
2023/04/03 03:26:02;;;;;;;5.75;1.65;;;1.30;99.90;;;;;;5073353;28;20040;-51
2023/04/03 03:28:28;;;;;;;9.80;1.80;;;1.30;99.90;;;;;;5073153;28;20040;-49
2023/04/03 03:30:54;;;;;;;7.15;1.90;;;1.30;99.90;;;;;;5073146;28;20043;-49
2023/04/03 03:33:20;;;;;;;6.97;1.77;;;1.30;99.90;;;;;;5073326;28;20044;-52
2023/04/03 03:35:46;;;;;;;7.32;1.83;;;1.30;99.90;;;;;;5073145;28;20496;-48
2023/04/03 03:38:12;;;;;;;5.88;1.50;;;1.20;99.90;;;;;;5071733;28;20052;-52
2023/04/03 03:40:37;;;;;;;6.88;1.92;;;1.20;99.90;;;;;;5072954;28;20041;-49
2023/04/03 03:43:03;;;;;;;7.07;1.80;;;1.20;99.90;;;;;;5071769;28;20039;-50
2023/04/03 03:45:29;;;;;;;6.47;1.92;;;1.20;99.90;;;;;;5072797;28;20040;-51
2023/04/03 03:47:55;;;;;;;9.60;2.20;;;1.20;99.90;;;;;;5072983;28;20385;-48
2023/04/03 03:50:21;;;;;;;6.80;1.70;;;1.10;99.90;;;;;;5072712;28;20040;-49
2023/04/03 03:52:46;;;;;;;6.35;2.05;;;1.10;99.90;;;;;;5072505;28;20513;-52
2023/04/03 03:55:12;;;;;;;6.45;2.08;;;0.90;99.90;;;;;;5071178;28;20492;-50
2023/04/03 03:57:38;;;;;;;8.70;2.10;;;0.90;99.90;;;;;;5072386;28;20059;-49
2023/04/03 04:00:05;;;;;;;7.10;1.70;;;0.90;99.90;;;;;;5072095;28;20481;-49
2023/04/03 04:02:30;;;;;;;7.88;1.77;;;0.90;99.90;;;;;;5072473;28;20537;-49
2023/04/03 04:04:56;;;;;;;7.35;2.55;;;0.80;99.90;;;;;;5072617;28;20036;-52
2023/04/03 04:07:22;;;;;;;5.78;1.90;;;0.90;99.90;;;;;;5071092;28;20036;-50
2023/04/03 04:09:48;;;;;;;9.10;2.10;;;0.80;99.90;;;;;;5072434;28;20047;-48
2023/04/03 04:12:14;;;;;;;8.02;1.92;;;0.90;99.90;;;;;;5072345;28;20036;-49
2023/04/03 04:14:40;;;;;;;6.07;1.70;;;0.80;99.90;;;;;;5072160;28;20041;-51
2023/04/03 04:17:05;;;;;;;5.68;1.70;;;0.80;99.90;;;;;;5072322;28;20035;-51
2023/04/03 04:19:32;;;;;;;9.70;2.05;;;0.80;99.90;;;;;;5072311;28;20492;-51
2023/04/03 04:21:58;;;;;;;8.27;1.90;;;0.70;99.90;;;;;;5072332;28;20044;-49
2023/04/03 04:24:24;;;;;;;8.07;1.92;;;0.80;99.90;;;;;;5072140;28;20445;-50
2023/04/03 04:26:50;;;;;;;6.97;2.17;;;0.80;99.90;;;;;;5070899;28;20493;-51
2023/04/03 04:29:15;;;;;;;7.53;1.90;;;0.60;99.90;;;;;;5072070;28;20043;-53
2023/04/03 04:31:41;;;;;;;6.93;1.80;;;0.70;99.90;;;;;;5072015;28;20040;-51
2023/04/03 04:34:07;;;;;;;10.23;2.00;;;0.80;99.90;;;;;;5072190;28;20037;-50
2023/04/03 04:36:33;;;;;;;6.50;1.60;;;0.70;99.90;;;;;;5072126;28;20493;-49
2023/04/03 04:38:58;;;;;;;5.97;1.80;;;0.70;99.90;;;;;;5072140;28;20037;-50
2023/04/03 04:41:24;;;;;;;6.63;1.80;;;0.70;99.90;;;;;;5071733;28;20047;-49
2023/04/03 04:43:51;;;;;;;8.70;2.13;;;0.70;99.90;;;;;;5071913;28;20102;-49
2023/04/03 04:46:17;;;;;;;8.75;2.05;;;0.70;99.90;;;;;;5071815;28;20194;-49
2023/04/03 04:48:43;;;;;;;7.90;1.95;;;0.70;99.90;;;;;;5071551;28;20059;-54
2023/04/03 04:51:09;;;;;;;8.98;2.10;;;0.80;99.90;;;;;;5070275;28;20036;-52
2023/04/03 04:53:35;;;;;;;11.40;2.35;;;0.70;99.90;;;;;;5070011;28;20415;-51
2023/04/03 04:56:01;;;;;;;6.63;2.13;;;0.70;99.90;;;;;;5070364;28;20040;-48
2023/04/03 04:58:26;;;;;;;7.57;1.73;;;0.60;99.90;;;;;;5068990;28;20040;-52
2023/04/03 05:01:03;;;;;;;9.25;1.90;;;0.70;99.90;;;;;;5070530;28;20036;-50
2023/04/03 05:03:29;;;;;;;7.30;1.55;;;0.70;99.90;;;;;;5070578;28;20052;-49
2023/04/03 05:05:55;;;;;;;7.05;1.67;;;0.70;99.90;;;;;;5070256;28;20044;-50
2023/04/03 05:08:21;;;;;;;7.72;2.30;;;0.70;99.90;;;;;;5055051;28;20072;-49
2023/04/03 05:10:47;;;;;;;5.82;1.50;;;0.70;99.90;;;;;;5052682;28;20120;-48
2023/04/03 05:13:13;;;;;;;8.60;2.05;;;0.70;99.90;;;;;;5053913;28;20345;-53
2023/04/03 05:15:39;;;;;;;6.30;1.80;;;0.70;99.90;;;;;;5054321;28;20041;-50
2023/04/03 05:18:05;;;;;;;9.30;1.92;;;0.60;99.90;;;;;;5055378;28;20218;-49
2023/04/03 05:20:32;;;;;;;5.43;2.00;;;0.80;99.90;;;;;;5073920;28;20036;-49
2023/04/03 05:22:57;;;;;;;3.83;1.73;;;0.60;99.90;;;;;;5074156;28;20439;-53
2023/04/03 05:25:23;;;;;;;5.57;1.75;;;0.80;99.90;;;;;;5073841;28;20043;-51
2023/04/03 05:27:49;;;;;;;5.05;1.52;;;0.70;99.90;;;;;;5064816;28;20048;-52
2023/04/03 05:30:15;;;;;;;10.00;2.03;;;0.80;99.90;;;;;;5069124;28;20149;-53
2023/04/03 05:32:42;;;;;;;8.07;1.80;;;0.80;99.90;;;;;;5070101;28;20922;-52
2023/04/03 05:35:08;;;;;;;9.48;1.90;;;0.70;99.90;;;;;;5073977;28;20400;-49
2023/04/03 05:37:34;;;;;;;5.85;1.73;;;0.70;99.90;;;;;;5072355;28;20102;-48
2023/04/03 05:40:00;;;;;;;6.40;1.80;;;0.70;99.90;;;;;;5062722;28;20036;-49
2023/04/03 05:42:26;;;;;;;6.57;2.35;;;0.80;99.90;;;;;;5059306;28;20500;-47
2023/04/03 05:44:52;;;;;;;5.78;1.48;;;0.80;99.90;;;;;;5053510;28;20148;-49
2023/04/03 05:47:19;;;;;;;5.60;1.70;;;0.80;99.90;;;;;;5053298;28;20090;-51
2023/04/03 05:49:45;;;;;;;3.45;1.38;;;0.70;99.90;;;;;;5070970;28;20057;-50
2023/04/03 05:52:26;;;;;;;6.22;2.08;;;0.80;99.90;;;;;;5073381;28;20036;-50
2023/04/03 05:54:51;;;;;;;6.85;1.60;;;1.00;99.90;;;;;;5073235;28;20052;-51
2023/04/03 05:57:18;;;;;;;6.55;1.90;;;1.00;99.90;;;;;;5073515;28;20507;-50
2023/04/03 05:59:45;;;;;;;6.30;1.60;;;0.90;99.90;;;;;;5073513;28;20036;-51
2023/04/03 06:02:13;;;;;;;6.13;1.48;;;1.00;99.90;;;;;;5073344;28;20040;-53
2023/04/03 06:04:39;;;;;;;9.48;1.60;;;1.00;99.90;;;;;;5073337;28;20084;-50
2023/04/03 06:07:05;;;;;;;8.85;2.15;;;1.00;99.90;;;;;;5073037;28;20092;-51
2023/04/03 06:09:31;;;;;;;6.55;2.20;;;1.10;99.90;;;;;;5073373;28;20067;-48
2023/04/03 06:12:00;;;;;;;7.60;1.60;;;1.10;99.90;;;;;;5073136;28;20051;-50
2023/04/03 06:14:26;;;;;;;5.75;1.60;;;1.20;99.90;;;;;;5072902;28;20048;-49
2023/04/03 06:16:53;;;;;;;6.50;1.70;;;1.20;99.90;;;;;;5073371;28;20236;-52
2023/04/03 06:19:20;;;;;;;4.85;1.30;;;1.20;99.90;;;;;;5071474;28;20044;-50
2023/04/03 06:21:46;;;;;;;12.77;2.20;;;1.20;99.90;;;;;;5071895;28;20051;-50
2023/04/03 06:24:15;;;;;;;5.45;1.90;;;1.20;99.90;;;;;;5072871;28;20057;-52
2023/04/03 06:26:41;;;;;;;7.53;1.70;;;1.30;99.90;;;;;;5072893;28;20391;-49
2023/04/03 06:29:07;;;;;;;5.93;1.60;;;1.30;99.90;;;;;;5071617;28;20060;-50
2023/04/03 06:31:33;;;;;;;4.47;1.67;;;1.40;99.90;;;;;;5072569;28;20087;-50
2023/04/03 06:33:59;;;;;;;10.68;1.52;;;1.40;99.90;;;;;;5073095;28;20064;-49
2023/04/03 06:36:25;;;;;;;4.03;1.63;;;1.50;99.90;;;;;;5072365;28;20492;-49
2023/04/03 06:38:51;;;;;;;5.55;1.70;;;1.50;99.90;;;;;;5072806;28;20044;-52
2023/04/03 06:41:17;;;;;;;5.15;1.58;;;1.50;99.90;;;;;;5072204;28;20085;-52
2023/04/03 06:43:44;;;;;;;6.05;1.58;;;1.50;99.90;;;;;;5071382;28;20119;-50
2023/04/03 06:46:17;;;;;;;5.25;1.90;;;1.60;99.90;;;;;;5073885;28;20527;-52
2023/04/03 06:48:44;;;;;;;7.57;1.90;;;1.60;99.90;;;;;;5073507;28;20044;-49
2023/04/03 06:51:26;;;;;;;6.00;1.63;;;1.80;99.90;;;;;;5073180;28;20071;-53
2023/04/03 06:53:55;;;;;;;7.47;1.55;;;1.90;99.90;;;;;;5072883;28;20136;-51
2023/04/03 06:56:22;;;;;;;9.02;1.52;;;1.80;99.90;;;;;;5073709;28;20090;-52
2023/04/03 06:58:48;;;;;;;6.53;1.85;;;2.00;99.90;;;;;;5073251;28;20037;-49
2023/04/03 07:01:17;;;;;;;4.65;1.45;;;2.00;99.90;;;;;;5072727;28;20469;-50
2023/04/03 07:03:43;;;;;;;7.82;1.70;;;2.10;99.90;;;;;;5064493;28;20044;-50
2023/04/03 07:06:14;;;;;;;7.18;1.73;;;2.20;99.90;;;;;;5062086;28;20069;-52
2023/04/03 07:08:41;;;;;;;5.10;1.50;;;2.20;99.90;;;;;;5061213;28;20052;-50
2023/04/03 07:11:07;;;;;;;9.80;2.28;;;2.30;99.90;;;;;;5063806;28;20037;-50
2023/04/03 07:13:33;;;;;;;6.55;1.75;;;2.30;99.90;;;;;;5059972;28;20047;-51
2023/04/03 07:15:59;;;;;;;6.05;1.95;;;2.30;99.90;;;;;;5062930;28;20032;-53
2023/04/03 07:18:25;;;;;;;7.10;1.95;;;2.30;99.90;;;;;;5061992;28;20071;-50
2023/04/03 07:20:51;;;;;;;5.13;1.90;;;2.40;99.90;;;;;;5060985;28;20508;-51
2023/04/03 07:23:17;;;;;;;6.60;1.90;;;2.60;99.90;;;;;;5062449;28;20041;-54
2023/04/03 07:25:47;;;;;;;8.20;1.80;;;2.60;99.90;;;;;;5068684;28;20459;-53
2023/04/03 07:28:14;;;;;;;6.25;2.15;;;2.70;99.90;;;;;;5073040;28;20044;-53
2023/04/03 07:30:47;;;;;;;6.63;1.70;;;2.80;99.90;;;;;;5073000;28;20044;-49
2023/04/03 07:33:14;;;;;;;7.78;2.00;;;2.90;99.90;;;;;;5071844;28;20526;-49
2023/04/03 07:35:40;;;;;;;12.07;2.20;;;3.00;99.90;;;;;;5073056;28;20376;-51
2023/04/03 07:38:06;;;;;;;5.45;1.90;;;3.20;99.90;;;;;;5072933;28;20094;-49
2023/04/03 07:40:32;;;;;;;7.97;1.80;;;3.20;99.90;;;;;;5072905;28;20044;-52
2023/04/03 07:42:59;;;;;;;5.43;1.52;;;3.30;99.90;;;;;;5072916;28;20040;-49
2023/04/03 07:45:25;;;;;;;4.95;1.58;;;3.40;99.90;;;;;;5071732;28;20048;-47
2023/04/03 07:47:51;;;;;;;5.07;1.63;;;3.60;99.90;;;;;;5072520;28;20036;-50
2023/04/03 07:50:17;;;;;;;6.35;1.98;;;3.70;99.90;;;;;;5054498;28;20052;-52
2023/04/03 07:52:44;;;;;;;5.00;1.50;;;3.80;99.90;;;;;;5057957;28;20055;-48
2023/04/03 07:55:10;;;;;;;6.22;1.55;;;3.70;99.90;;;;;;5052629;28;20052;-52
2023/04/03 07:57:36;;;;;;;6.00;1.60;;;3.80;99.90;;;;;;5052464;28;20025;-50
2023/04/03 08:00:05;;;;;;;7.22;1.65;;;3.90;99.90;;;;;;5052770;28;20042;-52
2023/04/03 08:02:31;;;;;;;5.38;1.20;;;3.90;99.90;;;;;;5052678;28;20045;-51
2023/04/03 08:04:58;;;;;;;4.38;1.23;;;4.00;99.90;;;;;;5052578;28;20051;-49
2023/04/03 08:07:25;;;;;;;4.53;1.17;;;4.10;99.90;;;;;;5052525;28;20515;-48
2023/04/03 08:09:51;;;;;;;4.40;1.20;;;4.20;99.90;;;;;;5052346;28;20155;-49
2023/04/03 08:12:17;;;;;;;5.25;1.58;;;4.30;99.90;;;;;;5052423;28;20040;-49
2023/04/03 08:14:43;;;;;;;5.05;1.48;;;4.20;99.90;;;;;;5050796;28;20473;-50
2023/04/03 08:17:11;;;;;;;4.95;1.27;;;4.30;99.90;;;;;;5052424;28;20044;-52
2023/04/03 08:19:38;;;;;;;4.68;1.50;;;4.30;99.90;;;;;;5052304;28;20033;-51
2023/04/03 08:22:04;;;;;;;5.72;1.33;;;4.30;99.90;;;;;;5051870;28;20120;-52
2023/04/03 08:24:31;;;;;;;6.53;1.42;;;4.40;99.90;;;;;;5051667;28;20508;-49
2023/04/03 08:26:57;;;;;;;6.00;1.58;;;4.40;99.90;;;;;;5052174;28;20045;-49
2023/04/03 08:29:23;;;;;;;5.82;1.60;;;4.50;99.90;;;;;;5051079;28;20044;-50
2023/04/03 08:31:50;;;;;;;6.45;2.25;;;4.50;99.90;;;;;;5052081;28;20037;-48
2023/04/03 08:34:16;;;;;;;4.30;1.33;;;4.50;99.90;;;;;;5051940;28;20119;-50
2023/04/03 08:36:42;;;;;;;7.35;1.63;;;4.60;99.90;;;;;;5051639;28;20397;-50
2023/04/03 08:39:08;;;;;;;7.18;1.65;;;4.70;99.90;;;;;;5050596;28;20033;-49
2023/04/03 08:41:43;;;;;;;5.10;1.33;;;4.80;99.90;;;;;;5050460;28;20540;-49
2023/04/03 08:44:45;;;;;;;5.07;1.63;;;4.80;99.90;;;;;;5051300;28;20084;-51
2023/04/03 08:47:24;;;;;;;4.65;1.20;;;4.90;99.90;;;;;;5051824;28;20041;-49
2023/04/03 08:50:03;;;;;;;4.60;1.40;;;5.00;99.90;;;;;;5069901;28;20080;-48
2023/04/03 08:52:45;;;;;;;7.00;1.85;;;5.00;99.90;;;;;;5071971;28;20373;-50
2023/04/03 08:55:17;;;;;;;6.15;1.50;;;5.10;99.90;;;;;;5071957;28;20048;-51
2023/04/03 08:57:45;;;;;;;5.82;1.60;;;5.10;99.90;;;;;;5071883;28;20088;-50
2023/04/03 09:00:14;;;;;;;2.88;1.55;;;5.20;99.90;;;;;;5071650;28;20040;-51
2023/04/03 09:02:56;;;;;;;6.65;1.30;;;5.20;99.90;;;;;;5071154;28;20040;-49
2023/04/03 09:05:44;;;;;;;3.55;1.10;;;5.20;99.90;;;;;;5071622;28;20068;-50
2023/04/03 09:08:27;;;;;;;4.80;1.40;;;5.20;99.90;;;;;;5070722;28;20135;-49
2023/04/03 09:11:06;;;;;;;5.03;1.20;;;5.30;99.90;;;;;;5070433;28;20513;-53
2023/04/03 09:13:55;;;;;;;6.10;1.50;;;5.40;99.90;;;;;;5071499;28;20503;-49
2023/04/03 09:16:29;;;;;;;7.63;1.42;;;5.30;99.90;;;;;;5056758;28;20033;-48
2023/04/03 09:19:12;;;;;;;5.18;1.25;;;5.50;99.90;;;;;;5051426;28;20037;-53
2023/04/03 09:21:42;;;;;;;5.15;1.52;;;5.60;99.90;;;;;;5051120;28;20037;-50
2023/04/03 09:24:12;;;;;;;6.65;1.50;;;5.80;99.90;;;;;;5061808;28;20105;-51
2023/04/03 09:26:45;;;;;;;6.47;1.85;;;5.80;99.90;;;;;;5067390;28;20048;-49
2023/04/03 09:29:18;;;;;;;4.50;1.35;;;5.90;99.90;;;;;;5061045;28;20037;-49
2023/04/03 09:31:46;;;;;;;6.40;1.80;;;5.90;99.90;;;;;;5061051;28;20044;-49
2023/04/03 09:34:35;;;;;;;6.22;1.67;;;5.90;99.90;;;;;;5060272;28;20036;-53
2023/04/03 09:37:05;;;;;;;6.07;1.50;;;6.00;99.90;;;;;;5057879;28;20158;-53
2023/04/03 09:39:32;;;;;;;7.35;1.98;;;6.10;99.90;;;;;;5064600;28;20443;-51
2023/04/03 09:42:16;;;;;;;6.95;1.48;;;6.10;99.90;;;;;;5063944;28;20384;-49
2023/04/03 09:44:42;;;;;;;4.25;1.33;;;6.20;99.90;;;;;;5065230;28;20503;-50
2023/04/03 09:47:18;;;;;;;3.15;1.13;;;6.40;99.90;;;;;;5071126;28;20131;-48
2023/04/03 09:49:44;;;;;;;6.50;1.17;;;6.30;99.90;;;;;;5068833;28;20078;-48
2023/04/03 09:52:23;;;;;;;2.67;1.02;;;6.40;99.90;;;;;;5061680;28;20044;-50
2023/04/03 09:54:49;;;;;;;2.72;0.80;;;6.40;98.90;;;;;;5058735;28;20125;-50
2023/04/03 09:57:15;;;;;;;5.32;0.90;;;6.50;99.90;;;;;;5054023;28;20072;-51
2023/04/03 09:59:59;;;;;;;6.63;1.17;;;6.60;98.10;;;;;;5053027;28;20040;-51
2023/04/03 10:02:36;;;;;;;4.57;0.93;;;6.60;95.70;;;;;;5054768;28;20076;-50
2023/04/03 10:05:03;;;;;;;4.40;1.00;;;6.70;98.20;;;;;;5054867;28;20044;-50
2023/04/03 10:07:38;;;;;;;4.80;1.27;;;6.70;95.40;;;;;;5053241;28;20045;-50
2023/04/03 10:10:23;;;;;;;3.95;0.80;;;6.70;95.80;;;;;;5054480;28;20044;-51
2023/04/03 10:13:05;;;;;;;4.88;1.13;;;6.90;96.40;;;;;;5053238;28;20133;-53
2023/04/03 10:15:46;;;;;;;4.30;1.38;;;6.90;97.40;;;;;;5053584;28;20084;-53
2023/04/03 10:18:59;;;;;;;3.88;1.05;;;7.00;96.50;;;;;;5054310;28;20052;-51
2023/04/03 10:21:42;;;;;;;;;;;6.90;96.50;;;;;;5053369;28;20078;-52
2023/04/03 10:24:40;;;;;;;4.63;1.15;;;7.00;97.30;;;;;;5053673;28;19974;-53
2023/04/03 10:27:10;;;;;;;3.53;1.00;;;7.00;97.50;;;;;;5051107;28;20048;-51
2023/04/03 10:30:29;;;;;;;2.90;0.90;;;7.10;98.10;;;;;;5053257;28;20125;-51
2023/04/03 10:33:25;;;;;;;10.32;1.55;;;7.20;97.50;;;;;;5023524;28;20057;-50
2023/04/03 10:36:00;;;;;;;3.05;1.00;;;7.20;97.60;;;;;;5046762;28;20060;-51
2023/04/03 10:39:05;;;;;;;2.65;0.80;;;7.20;97.10;;;;;;5053745;28;20535;-51
2023/04/03 10:41:47;;;;;;;5.63;1.10;;;7.40;97.20;;;;;;5053685;28;20043;-50
2023/04/03 10:44:35;;;;;;;3.40;1.05;;;7.50;98.20;;;;;;5053923;28;20048;-48
2023/04/03 10:47:34;;;;;;;3.92;1.02;;;7.60;98.00;;;;;;5052566;28;20132;-50
2023/04/03 10:50:19;;;;;;;2.72;0.80;;;7.70;96.20;;;;;;5073348;28;20115;-49
2023/04/03 10:52:56;;;;;;;4.32;1.20;;;7.70;94.60;;;;;;5072368;28;20071;-49
2023/04/03 10:55:24;;;;;;;5.22;1.13;;;7.60;94.40;;;;;;5073684;28;20067;-50
2023/04/03 10:57:51;;;;;;;4.03;1.08;;;7.70;96.80;;;;;;5073480;28;20048;-49
2023/04/03 11:00:22;;;;;;;3.47;1.23;;;7.70;95.70;;;;;;5072252;28;20423;-50
2023/04/03 11:03:05;;;;;;;4.60;1.13;;;7.80;95.40;;;;;;5073626;28;20111;-50
2023/04/03 11:05:45;;;;;;;4.50;1.42;;;7.70;94.00;;;;;;5071378;28;20119;-50
2023/04/03 11:08:34;;;;;;;5.55;1.27;;;7.80;94.10;;;;;;5063264;28;20091;-50
2023/04/03 11:11:07;;;;;;;3.55;1.23;;;7.90;94.00;;;;;;5064098;28;20032;-51
2023/04/03 11:13:43;;;;;;;2.60;0.73;;;7.90;95.30;;;;;;5062234;28;20496;-50
2023/04/03 11:16:13;;;;;;;3.60;1.00;;;8.00;96.30;;;;;;5062810;28;20316;-50
2023/04/03 11:18:48;;;;;;;3.38;1.00;;;8.10;96.00;;;;;;5060820;28;20037;-49
2023/04/03 11:21:31;;;;;;;4.10;1.20;;;8.20;95.30;;;;;;5062036;28;20052;-52
2023/04/03 11:23:58;;;;;;;4.93;1.00;;;8.10;94.50;;;;;;5059983;28;20033;-49
2023/04/03 11:26:30;;;;;;;3.15;1.00;;;8.00;94.50;;;;;;5063941;28;20123;-50
2023/04/03 11:29:00;;;;;;;3.88;1.20;;;8.00;94.00;;;;;;5064798;28;20052;-52
2023/04/03 11:31:33;;;;;;;4.35;1.13;;;8.00;94.40;;;;;;5061615;28;20501;-49
2023/04/03 11:34:19;;;;;;;;;;;8.00;94.70;;;;;;5061089;28;20040;-50
2023/04/03 11:36:53;;;;;;;3.58;1.05;;;8.10;94.30;;;;;;5059820;28;20323;-57
2023/04/03 11:39:38;;;;;;;2.58;0.90;;;8.20;94.50;;;;;;5061913;28;20128;-47
2023/04/03 11:42:28;;;;;;;3.55;1.10;;;8.10;93.30;;;;;;5062702;28;20044;-48
2023/04/03 11:45:22;;;;;;;2.67;1.00;;;8.10;92.40;;;;;;5062916;28;20044;-48
2023/04/03 11:47:58;;;;;;;3.28;1.10;;;8.20;94.00;;;;;;5062277;28;20051;-46
2023/04/03 11:50:41;;;;;;;3.00;1.02;;;8.40;92.80;;;;;;5065170;28;20037;-47
2023/04/03 11:53:07;;;;;;;5.60;1.27;;;8.30;92.60;;;;;;5060886;28;20052;-46
2023/04/03 11:55:32;;;;;;;5.63;1.30;;;8.40;93.50;;;;;;5059931;28;20037;-48
2023/04/03 11:57:58;;;;;;;4.15;1.10;;;8.40;94.30;;;;;;5056531;28;20047;-49
2023/04/03 12:00:49;;;;;;;3.70;0.90;;;8.40;94.50;;;;;;5058098;28;20090;-50
2023/04/03 12:03:27;;;;;;;3.75;1.02;;;8.40;93.70;;;;;;5057544;28;20489;-46
2023/04/03 12:06:06;;;;;;;4.57;1.10;;;8.40;94.10;;;;;;5059871;28;20501;-46
2023/04/03 12:08:41;;;;;;;4.00;1.00;;;8.50;93.40;;;;;;5061751;28;20032;-46
2023/04/03 12:11:27;;;;;;;3.38;0.98;;;8.50;94.20;;;;;;5061801;28;20039;-47
2023/04/03 12:13:56;;;;;;;3.42;0.93;;;8.50;93.60;;;;;;5060190;28;20059;-50
2023/04/03 12:16:40;;;;;;;3.72;1.10;;;8.80;94.80;;;;;;5059296;28;20036;-48
2023/04/03 12:19:18;;;;;;;4.15;1.10;;;8.80;94.40;;;;;;5060478;28;20041;-46
2023/04/03 12:21:46;;;;;;;4.13;0.95;;;8.90;93.10;;;;;;5060561;28;20029;-48
2023/04/03 12:24:15;;;;;;;4.45;1.13;;;8.80;94.80;;;;;;5062104;28;20085;-47
2023/04/03 12:26:59;;;;;;;4.13;1.20;;;8.90;94.30;;;;;;5062871;28;20131;-47
2023/04/03 12:29:35;;;;;;;3.70;0.90;;;8.80;93.30;;;;;;5062485;28;20083;-47
2023/04/03 12:32:07;;;;;;;2.90;0.93;;;8.80;93.10;;;;;;5060901;28;20041;-48
2023/04/03 12:34:56;;;;;;;4.00;1.00;;;8.80;93.80;;;;;;5061543;28;20047;-45
2023/04/03 12:37:49;;;;;;;4.93;1.02;;;8.70;91.70;;;;;;5062029;28;20128;-47
2023/04/03 12:40:42;;;;;;;3.72;0.98;;;8.90;93.00;;;;;;5060217;28;20036;-46
2023/04/03 12:43:14;;;;;;;4.05;1.08;;;8.80;93.20;;;;;;5051107;28;20044;-46
2023/04/03 12:45:43;;;;;;;3.88;1.00;;;9.00;93.70;;;;;;5050069;28;20497;-47
2023/04/03 12:48:16;;;;;;;3.55;0.95;;;8.90;92.50;;;;;;5055784;28;20036;-50
2023/04/03 12:50:44;;;;;;;4.28;1.15;;;9.00;92.40;;;;;;5071356;28;20503;-45
2023/04/03 12:53:19;;;;;;;5.55;1.17;;;8.90;92.20;;;;;;5069820;28;20492;-47
2023/04/03 12:55:45;;;;;;;2.78;1.02;;;8.90;92.90;;;;;;5067067;28;20041;-46
2023/04/03 12:58:23;;;;;;;2.40;0.85;;;8.80;92.30;;;;;;5060529;28;20033;-45
2023/04/03 13:01:20;;;;;;;4.50;1.40;;;8.90;92.20;;;;;;5061320;28;20025;-45
2023/04/03 13:03:49;;;;;;;3.92;1.60;;;8.80;92.40;;;;;;5060498;28;20048;-46
2023/04/03 13:06:43;;;;;;;4.32;1.10;;;8.80;92.70;;;;;;5061591;28;20055;-48
2023/04/03 13:09:23;;;;;;;3.78;1.17;;;9.00;92.60;;;;;;5049484;28;20136;-45
2023/04/03 13:11:53;;;;;;;3.85;1.17;;;9.00;92.80;;;;;;5051922;28;20041;-48
2023/04/03 13:14:25;;;;;;;3.90;1.75;;;8.80;92.70;;;;;;5051450;28;20049;-49
2023/04/03 13:16:56;;;;;;;4.65;1.30;;;8.80;92.40;;;;;;5050170;28;20481;-46